Time;durP1;ratioP1;P1;durP2;ratioP2;P2;SDS_P1;SDS_P2;PMS_P1;PMS_P2;Temp;Humidity;BMP_temperature;BMP_pressure;BME280_temperature;BME280_humidity;BME280_pressure;Samples;Min_cycle;Max_cycle;Signal;HPM_P1;HPM_P2
2023/01/14 00:00:22;;;;;;;12.10;2.10;;;;;;;5.02;89.12;100108.56;106525;1276;22526;-60
2023/01/14 00:03:13;;;;;;;9.70;2.00;;;;;;;5.00;89.15;100113.22;106551;1276;26559;-61
2023/01/14 00:05:44;;;;;;;10.20;1.90;;;;;;;4.99;89.25;100113.48;106523;1268;22625;-61
2023/01/14 00:08:15;;;;;;;11.70;1.90;;;;;;;4.98;89.26;100114.95;106699;1260;22524;-59
2023/01/14 00:10:46;;;;;;;9.50;2.40;;;;;;;4.95;89.09;100117.59;106565;1269;24383;-59
2023/01/14 00:13:17;;;;;;;11.70;2.40;;;;;;;4.91;89.05;100116.40;106526;1269;22607;-61
2023/01/14 00:15:57;;;;;;;12.60;2.10;;;;;;;4.87;88.93;100115.67;106632;1268;22653;-59
2023/01/14 00:18:27;;;;;;;11.50;2.50;;;;;;;4.82;88.93;100119.32;106665;1274;24289;-60
2023/01/14 00:21:01;;;;;;;11.80;2.10;;;;;;;4.79;89.08;100123.52;106472;1273;24273;-60
2023/01/14 00:23:34;;;;;;;11.00;2.40;;;;;;;4.75;89.01;100127.48;106543;1273;22531;-60
2023/01/14 00:26:11;;;;;;;11.30;2.00;;;;;;;4.72;89.07;100130.45;106604;1276;24388;-58
2023/01/14 00:28:43;;;;;;;11.60;2.60;;;;;;;4.69;89.11;100130.48;106607;1276;22527;-59
2023/01/14 00:31:16;;;;;;;8.10;1.90;;;;;;;4.66;89.25;100134.27;106624;1273;22530;-58
2023/01/14 00:33:47;;;;;;;10.90;1.90;;;;;;;4.64;89.27;100132.43;106624;1262;22877;-58
2023/01/14 00:36:36;;;;;;;13.30;2.40;;;;;;;4.63;89.22;100137.77;106549;1268;22561;-60
2023/01/14 00:39:07;;;;;;;10.20;2.10;;;;;;;4.60;89.29;100137.29;106615;1276;24278;-60
2023/01/14 00:41:38;;;;;;;5.40;1.50;;;;;;;4.59;89.29;100138.74;106550;1262;22542;-60
2023/01/14 00:44:10;;;;;;;8.80;1.40;;;;;;;4.58;89.35;100141.95;106592;1276;24266;-59
2023/01/14 00:46:42;;;;;;;10.00;1.70;;;;;;;4.57;89.47;100143.96;106517;1264;23155;-60
2023/01/14 00:49:17;;;;;;;8.30;1.40;;;;;;;4.56;89.52;100149.11;106590;1263;23011;-60
2023/01/14 00:51:49;;;;;;;9.60;1.70;;;;;;;4.56;89.65;100153.63;106645;1268;22525;-58
2023/01/14 00:54:20;;;;;;;9.20;1.50;;;;;;;4.57;89.74;100160.16;106594;1276;24439;-60
2023/01/14 00:56:51;;;;;;;7.10;1.60;;;;;;;4.58;89.82;100160.59;106518;1274;22881;-59
2023/01/14 00:59:24;;;;;;;10.30;1.50;;;;;;;4.59;89.75;100158.52;106478;1269;22531;-59
2023/01/14 01:01:55;;;;;;;10.90;1.90;;;;;;;4.59;89.75;100162.79;106624;1276;22567;-59
2023/01/14 01:04:27;;;;;;;8.40;1.60;;;;;;;4.59;89.81;100169.15;106516;1268;25497;-59
2023/01/14 01:06:58;;;;;;;9.30;1.90;;;;;;;4.59;89.76;100172.92;106564;1269;22631;-59
2023/01/14 01:09:30;;;;;;;7.80;1.60;;;;;;;4.58;89.63;100175.75;106566;1265;24078;-58
2023/01/14 01:12:18;;;;;;;7.30;1.40;;;;;;;4.57;89.57;100174.53;106509;1276;25362;-58
2023/01/14 01:14:49;;;;;;;6.70;1.50;;;;;;;4.55;89.53;100172.22;106532;1262;22526;-60
2023/01/14 01:17:20;;;;;;;7.90;1.40;;;;;;;4.53;89.55;100173.00;106499;1269;23126;-59
2023/01/14 01:19:54;;;;;;;6.90;1.40;;;;;;;4.51;89.61;100178.90;106698;1268;22576;-60
2023/01/14 01:22:24;;;;;;;9.00;1.70;;;;;;;4.50;89.63;100180.11;106582;1276;22581;-59
2023/01/14 01:24:55;;;;;;;11.40;1.40;;;;;;;4.48;89.65;100182.98;106512;1276;24206;-61
2023/01/14 01:27:27;;;;;;;9.50;1.80;;;;;;;4.47;89.71;100186.36;106525;1276;22543;-60
2023/01/14 01:29:58;;;;;;;10.40;1.70;;;;;;;4.46;89.73;100186.79;106679;1276;26440;-58
2023/01/14 01:32:29;;;;;;;10.70;1.80;;;;;;;4.44;89.68;100189.44;106500;1269;24288;-62
2023/01/14 01:35:00;;;;;;;9.20;1.40;;;;;;;4.42;89.57;100188.95;106582;1276;24279;-60
2023/01/14 01:37:31;;;;;;;11.00;2.00;;;;;;;4.39;89.62;100188.46;106761;1266;22534;-61
2023/01/14 01:40:02;;;;;;;7.30;1.40;;;;;;;4.38;89.75;100191.91;106746;1260;24392;-60
2023/01/14 01:42:35;;;;;;;8.50;1.50;;;;;;;4.35;89.57;100191.27;106518;1275;22815;-60
2023/01/14 01:45:26;;;;;;;8.30;1.90;;;;;;;4.33;89.75;100189.05;106463;1269;24240;-59
2023/01/14 01:48:03;;;;;;;8.20;1.30;;;;;;;4.32;89.74;100191.28;106631;1274;24353;-60
2023/01/14 01:50:35;;;;;;;9.80;1.90;;;;;;;4.30;89.82;100192.13;106741;1268;25363;-61
2023/01/14 01:53:08;;;;;;;7.90;1.40;;;;;;;4.28;89.63;100188.23;106733;1276;22635;-59
2023/01/14 01:55:42;;;;;;;8.20;1.50;;;;;;;4.26;89.57;100192.79;106503;1268;22530;-59
2023/01/14 01:58:14;;;;;;;8.70;1.50;;;;;;;4.25;89.68;100192.20;106546;1257;22525;-59
2023/01/14 02:00:45;;;;;;;11.30;1.70;;;;;;;4.23;89.61;100186.89;106530;1263;23940;-58
2023/01/14 02:03:20;;;;;;;8.50;1.40;;;;;;;4.20;89.56;100186.27;106516;1276;24395;-60
2023/01/14 02:05:53;;;;;;;8.00;1.30;;;;;;;4.17;89.49;100191.71;106519;1269;22526;-59
2023/01/14 02:08:24;;;;;;;7.70;1.20;;;;;;;4.14;89.55;100199.52;106622;1268;22551;-60
2023/01/14 02:11:10;;;;;;;7.90;1.50;;;;;;;4.10;89.52;100194.59;106640;1276;22657;-58
2023/01/14 02:13:53;;;;;;;11.60;1.40;;;;;;;4.05;89.43;100193.92;106567;1276;23020;-57
2023/01/14 02:16:37;;;;;;;7.90;1.90;;;;;;;4.00;89.45;100197.86;106486;1270;24265;-60
2023/01/14 02:19:18;;;;;;;6.90;1.40;;;;;;;3.94;89.56;100198.23;106762;1275;22556;-58
2023/01/14 02:22:12;;;;;;;6.10;1.30;;;;;;;3.90;89.55;100200.95;106625;1275;22559;-61
2023/01/14 02:25:19;;;;;;;8.60;1.20;;;;;;;3.85;89.53;100195.95;106470;1275;22531;-59
2023/01/14 02:27:53;;;;;;;6.70;1.30;;;;;;;3.82;89.78;100200.75;106774;1276;22530;-59
2023/01/14 02:30:48;;;;;;;8.10;1.40;;;;;;;3.80;89.68;100203.26;106549;1275;22526;-58
2023/01/14 02:33:32;;;;;;;8.70;1.80;;;;;;;3.79;89.73;100206.91;106597;1265;25541;-60
2023/01/14 02:36:12;;;;;;;8.60;1.60;;;;;;;3.77;89.82;100208.00;106630;1273;24263;-59
2023/01/14 02:38:49;;;;;;;6.90;1.20;;;;;;;3.76;89.93;100212.46;106501;1273;22611;-59
2023/01/14 02:44:06;;;;;;;8.70;1.40;;;;;;;3.75;89.98;100214.77;106514;1268;25403;-58
2023/01/14 02:44:22;;;;;;;7.10;1.20;;;;;;;3.74;89.87;100219.91;106459;1276;22546;-60
2023/01/14 02:46:56;;;;;;;3.80;0.90;;;;;;;3.74;90.02;100221.98;106530;1276;24252;-60
2023/01/14 02:49:31;;;;;;;3.40;0.90;;;;;;;3.74;90.01;100225.05;106545;1273;22541;-60
2023/01/14 02:52:05;;;;;;;5.40;1.00;;;;;;;3.73;89.94;100225.13;106624;1276;22530;-59
2023/01/14 02:54:36;;;;;;;5.70;0.90;;;;;;;3.73;89.94;100225.46;106611;1265;22543;-60
2023/01/14 02:57:16;;;;;;;6.00;0.90;;;;;;;3.72;89.82;100228.95;106497;1276;24222;-58
2023/01/14 02:59:54;;;;;;;8.80;1.20;;;;;;;3.71;89.87;100230.09;106482;1276;22529;-59
2023/01/14 03:02:48;;;;;;;7.20;1.20;;;;;;;3.70;89.91;100231.06;106539;1269;25749;-59
2023/01/14 03:05:39;;;;;;;4.80;0.80;;;;;;;3.69;89.94;100230.36;106587;1269;22641;-58
2023/01/14 03:08:18;;;;;;;5.50;0.90;;;;;;;3.68;89.73;100232.86;106505;1276;22532;-58
2023/01/14 03:10:56;;;;;;;5.00;0.90;;;;;;;3.63;89.75;100236.45;106623;1276;22530;-62
2023/01/14 03:13:38;;;;;;;7.50;1.30;;;;;;;3.60;89.82;100242.19;106502;1276;24280;-59
2023/01/14 03:16:14;;;;;;;6.00;1.30;;;;;;;3.58;89.92;100245.08;106723;1275;22526;-60
2023/01/14 03:18:49;;;;;;;3.30;0.70;;;;;;;3.58;89.93;100244.14;106600;1269;24242;-59
2023/01/14 03:21:24;;;;;;;6.80;0.80;;;;;;;3.58;89.94;100244.23;106668;1268;22578;-61
2023/01/14 03:24:03;;;;;;;1.60;0.50;;;;;;;3.59;89.98;100245.38;106627;1276;25742;-60
2023/01/14 03:26:37;;;;;;;3.70;0.70;;;;;;;3.60;89.91;100246.95;106479;1276;24388;-58
2023/01/14 03:29:11;;;;;;;5.30;0.80;;;;;;;3.61;90.01;100250.52;106600;1269;24268;-60
2023/01/14 03:31:47;;;;;;;4.80;0.70;;;;;;;3.62;89.96;100256.09;106703;1276;22976;-59
2023/01/14 03:34:22;;;;;;;5.50;0.80;;;;;;;3.63;89.88;100256.55;106506;1276;22532;-59
2023/01/14 03:36:55;;;;;;;10.20;1.00;;;;;;;3.64;89.91;100264.49;106597;1276;25388;-58
2023/01/14 03:39:29;;;;;;;3.90;0.70;;;;;;;3.65;90.00;100268.79;106655;1269;22541;-58
2023/01/14 03:42:20;;;;;;;6.50;0.80;;;;;;;3.68;89.95;100270.55;106485;1264;22556;-60
2023/01/14 03:45:10;;;;;;;5.80;0.60;;;;;;;3.71;89.96;100269.61;106359;1276;181715;-59
2023/01/14 03:47:43;;;;;;;6.20;0.70;;;;;;;3.74;90.01;100276.54;106610;1275;24245;-59
2023/01/14 03:50:17;;;;;;;5.20;0.60;;;;;;;3.77;90.07;100277.73;106627;1261;24250;-59
2023/01/14 03:53:16;;;;;;;7.20;0.60;;;;;;;3.79;90.07;100278.16;106630;1276;24355;-59
2023/01/14 03:55:57;;;;;;;6.10;0.80;;;;;;;3.81;89.97;100283.15;106671;1276;24270;-60
2023/01/14 03:58:38;;;;;;;3.10;0.60;;;;;;;3.83;90.14;100285.94;106588;1270;22543;-61
2023/01/14 04:01:15;;;;;;;7.70;0.70;;;;;;;3.86;90.14;100288.96;106499;1276;25370;-60
2023/01/14 04:03:47;;;;;;;3.60;0.70;;;;;;;3.89;90.32;100292.13;106456;1258;22544;-58
2023/01/14 04:06:18;;;;;;;3.40;0.60;;;;;;;3.91;90.34;100292.93;106460;1276;24245;-59
2023/01/14 04:08:49;;;;;;;9.10;0.80;;;;;;;3.93;90.38;100298.55;106456;1265;23097;-59
2023/01/14 04:11:20;;;;;;;4.70;0.80;;;;;;;3.96;90.40;100304.09;106568;1276;25534;-59
2023/01/14 04:16:39;;;;;;;3.20;0.70;;;;;;;4.01;90.50;100304.60;106501;1270;22612;-57
2023/01/14 04:19:10;;;;;;;5.30;0.90;;;;;;;4.04;90.54;100306.48;106518;1270;22536;-59
2023/01/14 04:21:42;;;;;;;7.70;0.90;;;;;;;4.07;90.56;100307.85;106498;1270;22584;-59
2023/01/14 04:24:12;;;;;;;7.10;0.80;;;;;;;4.09;90.73;100305.33;106756;1269;22763;-60
2023/01/14 04:26:43;;;;;;;5.40;0.80;;;;;;;4.12;90.67;100304.01;106539;1276;24248;-59
2023/01/14 04:29:14;;;;;;;7.00;1.30;;;;;;;4.14;90.58;100305.46;106434;1276;25833;-59
2023/01/14 04:31:45;;;;;;;6.70;1.40;;;;;;;4.16;90.64;100308.56;106526;1276;25297;-59
2023/01/14 04:34:16;;;;;;;6.60;1.30;;;;;;;4.19;90.72;100310.15;106650;1259;22529;-61
2023/01/14 04:36:47;;;;;;;7.90;1.40;;;;;;;4.22;90.69;100309.68;106498;1276;22534;-59
2023/01/14 04:39:18;;;;;;;6.30;1.40;;;;;;;4.23;90.75;100316.66;106530;1259;23283;-60
2023/01/14 04:44:37;;;;;;;4.40;1.10;;;;;;;4.25;90.49;100317.10;106070;1281;22538;-60
2023/01/14 04:47:07;;;;;;;7.80;1.20;;;;;;;4.24;90.46;100312.31;106046;1266;22545;-59
2023/01/14 04:49:38;;;;;;;7.40;1.20;;;;;;;4.22;90.33;100318.83;106045;1281;22682;-59
2023/01/14 04:52:09;;;;;;;6.20;1.00;;;;;;;4.20;90.30;100320.94;106057;1281;24392;-59
2023/01/14 04:54:40;;;;;;;5.80;1.00;;;;;;;4.18;90.35;100321.63;106017;1276;24388;-61
2023/01/14 04:57:11;;;;;;;5.70;1.00;;;;;;;4.17;90.44;100324.34;106062;1278;22535;-60
2023/01/14 04:59:42;;;;;;;4.80;1.10;;;;;;;4.17;90.51;100326.77;106060;1274;22588;-60
2023/01/14 05:02:13;;;;;;;8.40;1.10;;;;;;;4.16;90.56;100331.38;106077;1281;25580;-58
2023/01/14 05:04:44;;;;;;;6.70;1.00;;;;;;;4.15;90.56;100331.31;106103;1281;22986;-58
2023/01/14 05:07:15;;;;;;;8.50;0.90;;;;;;;4.16;90.63;100332.95;106043;1277;22590;-60
2023/01/14 05:09:46;;;;;;;6.00;1.20;;;;;;;4.16;90.61;100332.79;106111;1277;22641;-59
2023/01/14 05:12:17;;;;;;;5.70;1.00;;;;;;;4.15;90.61;100335.27;106075;1281;22520;-59
2023/01/14 05:14:48;;;;;;;8.20;1.10;;;;;;;4.15;90.63;100339.38;106066;1281;22666;-60
2023/01/14 05:17:18;;;;;;;4.70;0.90;;;;;;;4.14;90.57;100340.42;105996;1281;24171;-59
2023/01/14 05:19:49;;;;;;;8.70;1.10;;;;;;;4.12;90.66;100343.80;106060;1276;22523;-62
2023/01/14 05:22:20;;;;;;;9.50;1.20;;;;;;;4.10;90.61;100347.46;106182;1276;25287;-59
2023/01/14 05:24:51;;;;;;;7.70;1.70;;;;;;;4.09;90.62;100348.58;106524;1276;23015;-60
2023/01/14 05:27:22;;;;;;;7.10;1.40;;;;;;;4.09;90.66;100351.28;106483;1268;24385;-61
2023/01/14 05:29:53;;;;;;;9.00;1.30;;;;;;;4.09;90.61;100349.86;106572;1275;22636;-60
2023/01/14 05:32:24;;;;;;;6.00;1.40;;;;;;;4.10;90.73;100350.80;106606;1270;24492;-61
2023/01/14 05:34:55;;;;;;;9.40;1.00;;;;;;;4.09;90.77;100351.36;106711;1271;22654;-60
2023/01/14 05:37:26;;;;;;;5.50;1.00;;;;;;;4.10;90.81;100353.23;106760;1265;22517;-60
2023/01/14 05:39:57;;;;;;;11.70;1.20;;;;;;;4.10;90.76;100352.19;106474;1275;24282;-59
2023/01/14 05:48:06;;;;;;;10.10;1.40;;;;;;;4.10;90.58;100362.30;106499;1276;24276;-58
2023/01/14 05:50:37;;;;;;;7.40;1.20;;;;;;;4.09;90.57;100364.15;106514;1269;24253;-60
2023/01/14 05:53:09;;;;;;;5.60;1.20;;;;;;;4.08;90.66;100368.17;106505;1270;22610;-58
2023/01/14 05:55:40;;;;;;;7.50;1.30;;;;;;;4.09;90.71;100366.99;106580;1276;22552;-59
2023/01/14 05:58:12;;;;;;;5.00;1.10;;;;;;;4.08;90.62;100367.32;106501;1262;22537;-60
2023/01/14 06:06:24;;;;;;;7.00;1.10;;;;;;;4.06;90.51;100369.50;106492;1273;22534;-59
2023/01/14 06:08:57;;;;;;;8.20;1.30;;;;;;;4.05;90.57;100368.91;106519;1276;22545;-60
2023/01/14 06:11:32;;;;;;;6.40;1.20;;;;;;;4.03;90.58;100368.69;106576;1269;23939;-60
2023/01/14 06:14:04;;;;;;;11.60;1.60;;;;;;;4.02;90.62;100365.65;106594;1276;25417;-60
2023/01/14 06:16:39;;;;;;;6.00;1.30;;;;;;;4.02;90.68;100371.42;106619;1271;22740;-61
2023/01/14 06:19:12;;;;;;;7.90;1.30;;;;;;;4.01;90.75;100380.04;106586;1265;22534;-59
2023/01/14 06:21:43;;;;;;;9.10;1.30;;;;;;;4.03;90.85;100386.40;106605;1276;22657;-60
2023/01/14 06:24:14;;;;;;;6.30;1.30;;;;;;;4.05;90.82;100393.53;106496;1276;23029;-61
2023/01/14 06:26:45;;;;;;;8.10;1.80;;;;;;;4.07;90.98;100389.92;106601;1269;25376;-57
2023/01/14 06:29:16;;;;;;;9.40;1.60;;;;;;;4.10;91.09;100391.05;106544;1260;25372;-59
2023/01/14 06:31:47;;;;;;;10.10;1.50;;;;;;;4.14;91.09;100398.53;106560;1276;22616;-59
2023/01/14 06:34:21;;;;;;;10.40;1.40;;;;;;;4.16;91.12;100398.40;106504;1260;24421;-60
2023/01/14 06:36:52;;;;;;;7.50;1.40;;;;;;;4.20;91.16;100401.07;106610;1263;22539;-61
2023/01/14 06:39:23;;;;;;;10.20;1.60;;;;;;;4.22;91.13;100404.34;106548;1273;22535;-61
2023/01/14 06:41:54;;;;;;;5.30;1.50;;;;;;;4.23;91.07;100413.48;106514;1275;22655;-61
2023/01/14 06:44:25;;;;;;;8.40;1.50;;;;;;;4.24;91.08;100409.81;106559;1276;24455;-60
2023/01/14 06:46:55;;;;;;;6.60;1.80;;;;;;;4.26;91.21;100411.83;106534;1276;24378;-60
2023/01/14 06:49:26;;;;;;;15.60;2.50;;;;;;;4.28;91.35;100410.73;106461;1270;22636;-61
2023/01/14 06:51:57;;;;;;;8.10;2.20;;;;;;;4.30;91.12;100414.08;106475;1276;24433;-62
2023/01/14 06:54:28;;;;;;;8.90;1.90;;;;;;;4.32;91.01;100416.41;106485;1270;24310;-60
2023/01/14 06:56:59;;;;;;;6.90;1.70;;;;;;;4.32;90.92;100416.89;106492;1271;23030;-59
2023/01/14 06:59:30;;;;;;;12.20;2.20;;;;;;;4.32;90.87;100422.47;106488;1269;22534;-59
2023/01/14 07:02:01;;;;;;;13.00;1.90;;;;;;;4.31;90.76;100421.23;106508;1276;26545;-60
2023/01/14 07:04:32;;;;;;;7.20;1.70;;;;;;;4.30;90.69;100420.22;106531;1273;22543;-62
2023/01/14 07:07:02;;;;;;;9.60;2.00;;;;;;;4.28;90.73;100418.88;106495;1262;22550;-60
2023/01/14 07:09:34;;;;;;;12.20;1.80;;;;;;;4.28;90.79;100415.73;106521;1276;22539;-60
2023/01/14 07:12:06;;;;;;;8.50;1.70;;;;;;;4.27;90.67;100417.55;106576;1276;25317;-61
2023/01/14 07:14:36;;;;;;;8.70;1.80;;;;;;;4.26;90.76;100418.61;106584;1273;22531;-60
2023/01/14 07:17:08;;;;;;;9.30;2.00;;;;;;;4.26;90.84;100425.34;106562;1273;24429;-60
2023/01/14 07:19:39;;;;;;;6.80;1.60;;;;;;;4.27;90.88;100425.69;106498;1262;25298;-60
2023/01/14 07:22:09;;;;;;;9.30;1.70;;;;;;;4.27;90.93;100426.46;106505;1274;24272;-62
2023/01/14 07:24:40;;;;;;;9.30;1.70;;;;;;;4.30;90.98;100424.34;106458;1269;24221;-59
2023/01/14 07:27:11;;;;;;;6.30;1.50;;;;;;;4.33;91.09;100421.59;106483;1262;22541;-60
2023/01/14 07:29:42;;;;;;;13.10;2.40;;;;;;;4.36;91.09;100424.12;106529;1276;22527;-61
2023/01/14 07:32:13;;;;;;;10.30;2.20;;;;;;;4.38;91.05;100434.10;106482;1273;22537;-58
2023/01/14 07:34:44;;;;;;;5.70;1.50;;;;;;;4.39;90.97;100435.25;106444;1276;25327;-60
2023/01/14 07:37:15;;;;;;;12.30;1.70;;;;;;;4.40;90.88;100443.52;106254;1270;22532;-59
2023/01/14 07:39:45;;;;;;;8.90;1.80;;;;;;;4.41;90.83;100450.14;106456;1276;24343;-59
2023/01/14 07:42:19;;;;;;;9.00;1.90;;;;;;;4.41;90.88;100452.43;106384;1276;22538;-60
2023/01/14 07:44:50;;;;;;;9.50;1.60;;;;;;;4.40;90.84;100454.41;106568;1275;24215;-69
2023/01/14 07:47:21;;;;;;;10.30;2.00;;;;;;;4.39;90.74;100454.52;106533;1274;22651;-60
2023/01/14 07:49:52;;;;;;;7.40;1.70;;;;;;;4.39;90.83;100457.45;106508;1276;24261;-60
2023/01/14 07:52:23;;;;;;;7.50;2.30;;;;;;;4.40;90.92;100462.79;106481;1276;22583;-60
2023/01/14 07:54:55;;;;;;;9.40;2.30;;;;;;;4.42;91.02;100462.36;106555;1276;24809;-60
2023/01/14 07:57:26;;;;;;;8.40;2.10;;;;;;;4.45;91.16;100463.22;106493;1276;22575;-60
2023/01/14 07:59:56;;;;;;;12.10;3.00;;;;;;;4.50;91.44;100460.27;106512;1276;23152;-60
2023/01/14 08:02:28;;;;;;;8.50;2.00;;;;;;;4.54;91.54;100461.26;106466;1270;22523;-60
2023/01/14 08:04:59;;;;;;;9.50;2.30;;;;;;;4.60;91.63;100458.65;106544;1274;25425;-60
2023/01/14 08:07:29;;;;;;;10.50;1.90;;;;;;;4.66;91.48;100459.70;106424;1261;24380;-59
2023/01/14 08:10:00;;;;;;;11.20;1.60;;;;;;;4.74;91.61;100467.63;106499;1269;24371;-61
2023/01/14 08:12:32;;;;;;;12.00;2.30;;;;;;;4.80;91.57;100469.98;106521;1261;22530;-60
2023/01/14 08:15:03;;;;;;;11.90;2.50;;;;;;;4.87;91.55;100475.20;107665;1268;22465;-61
2023/01/14 08:17:34;;;;;;;9.00;1.80;;;;;;;4.93;91.56;100476.38;110148;1261;22215;-61
2023/01/14 08:20:07;;;;;;;9.00;2.10;;;;;;;5.00;91.51;100472.73;106722;1276;25509;-59
2023/01/14 08:22:38;;;;;;;9.40;2.40;;;;;;;5.05;91.48;100475.19;106547;1276;25288;-60
2023/01/14 08:25:10;;;;;;;12.30;2.80;;;;;;;5.10;91.50;100477.98;106422;1273;22689;-60
2023/01/14 08:27:41;;;;;;;11.70;2.00;;;;;;;5.16;91.58;100480.53;108268;1266;22527;-61
2023/01/14 08:30:14;;;;;;;9.30;1.60;;;;;;;5.21;91.46;100483.16;106467;1267;23031;-60
2023/01/14 08:32:44;;;;;;;12.30;2.00;;;;;;;5.25;91.42;100482.33;106479;1276;22568;-60
2023/01/14 08:35:16;;;;;;;13.60;1.80;;;;;;;5.31;91.40;100476.54;106452;1262;22535;-59
2023/01/14 08:37:47;;;;;;;10.70;2.50;;;;;;;5.36;91.37;100472.60;106482;1276;22527;-60
2023/01/14 08:40:19;;;;;;;13.10;1.80;;;;;;;5.42;91.40;100471.09;106411;1275;22579;-59
2023/01/14 08:42:51;;;;;;;10.10;1.70;;;;;;;5.47;91.13;100474.66;106711;1268;22561;-60
2023/01/14 08:45:22;;;;;;;6.40;1.70;;;;;;;5.51;91.04;100479.92;106502;1273;22715;-62
2023/01/14 08:47:53;;;;;;;11.70;2.30;;;;;;;5.56;91.08;100480.34;106444;1269;25394;-61
2023/01/14 08:50:24;;;;;;;10.80;2.20;;;;;;;5.62;90.93;100481.91;106600;1270;24219;-60
2023/01/14 08:52:55;;;;;;;8.00;1.40;;;;;;;5.67;90.87;100482.46;106531;1276;24284;-59
2023/01/14 09:37:22;;;;;;;9.20;1.60;;;;;;;6.48;90.37;100498.22;106125;1270;22622;-62
2023/01/14 09:39:54;;;;;;;13.20;2.20;;;;;;;6.53;90.14;100493.62;106028;1270;22550;-58
2023/01/14 09:42:30;;;;;;;8.40;1.50;;;;;;;6.57;89.68;100489.72;106200;1270;22642;-55
2023/01/14 09:45:11;;;;;;;10.30;1.80;;;;;;;6.62;89.75;100491.02;106299;1275;22552;-54
2023/01/14 09:47:44;;;;;;;8.20;1.70;;;;;;;6.68;89.87;100493.55;106403;1277;25382;-57
2023/01/14 09:50:18;;;;;;;10.50;1.50;;;;;;;6.74;89.62;100491.67;106438;1264;22533;-59
2023/01/14 09:53:14;;;;;;;9.80;1.50;;;;;;;6.78;89.53;100486.63;106331;1277;22536;-60
2023/01/14 09:55:50;;;;;;;17.30;3.20;;;;;;;6.82;89.37;100480.15;106189;1270;22563;-58
2023/01/14 09:58:27;;;;;;;12.70;1.90;;;;;;;6.87;89.03;100482.13;106410;1270;22533;-58
2023/01/14 10:01:09;;;;;;;13.90;1.70;;;;;;;6.92;88.99;100480.83;106171;1264;22582;-57
2023/01/14 10:03:47;;;;;;;13.20;1.70;;;;;;;6.99;88.71;100484.41;106105;1278;22539;-57
2023/01/14 10:06:39;;;;;;;7.00;1.40;;;;;;;7.05;88.93;100486.25;106095;1278;23995;-70
2023/01/14 10:09:15;;;;;;;11.10;1.40;;;;;;;7.13;88.70;100480.09;106156;1270;24501;-59
2023/01/14 10:11:47;;;;;;;12.80;2.00;;;;;;;7.20;88.69;100482.10;106211;1264;23022;-59
2023/01/14 10:14:23;;;;;;;9.50;1.60;;;;;;;7.27;88.67;100482.40;106239;1263;22549;-59
2023/01/14 10:17:00;;;;;;;8.30;1.40;;;;;;;7.34;88.55;100482.92;106293;1278;22546;-60
2023/01/14 10:19:37;;;;;;;13.80;1.60;;;;;;;7.41;88.12;100479.91;106214;1266;24258;-60
2023/01/14 10:22:16;;;;;;;5.60;1.10;;;;;;;7.47;88.14;100476.84;106257;1264;22540;-60
2023/01/14 10:24:47;;;;;;;7.70;1.40;;;;;;;7.53;87.96;100482.90;106248;1277;22551;-59
2023/01/14 10:27:20;;;;;;;8.70;1.10;;;;;;;7.57;87.75;100487.02;106326;1261;24310;-60
2023/01/14 10:29:51;;;;;;;8.80;1.00;;;;;;;7.61;87.91;100485.77;106371;1270;22540;-60
2023/01/14 10:32:24;;;;;;;9.20;1.40;;;;;;;7.64;87.50;100480.88;106151;1270;23244;-60
2023/01/14 10:34:58;;;;;;;10.90;2.10;;;;;;;7.68;87.56;100477.73;106337;1278;26101;-60
2023/01/14 10:37:29;;;;;;;9.40;1.40;;;;;;;7.70;87.14;100476.04;106329;1263;22523;-58
2023/01/14 10:40:01;;;;;;;8.40;1.00;;;;;;;7.71;87.00;100466.42;106331;1275;22535;-60
2023/01/14 10:42:32;;;;;;;10.10;1.50;;;;;;;7.71;87.03;100464.52;106294;1264;25667;-57
2023/01/14 10:45:04;;;;;;;7.80;1.20;;;;;;;7.71;87.02;100465.55;106320;1270;22926;-59
2023/01/14 10:47:36;;;;;;;7.00;1.20;;;;;;;7.71;86.81;100462.28;106404;1270;24279;-59
2023/01/14 10:50:17;;;;;;;7.30;1.50;;;;;;;7.71;86.57;100454.13;106358;1270;24255;-59
2023/01/14 10:52:50;;;;;;;7.10;1.00;;;;;;;7.72;86.09;100447.95;106153;1263;22537;-60
2023/01/14 10:55:25;;;;;;;11.40;1.30;;;;;;;7.73;85.75;100441.57;106369;1264;22534;-59
2023/01/14 10:58:00;;;;;;;8.30;1.60;;;;;;;7.74;85.68;100439.73;106439;1270;22923;-60
2023/01/14 11:00:37;;;;;;;10.40;1.70;;;;;;;7.73;85.75;100440.30;106429;1264;22543;-59
2023/01/14 11:03:11;;;;;;;10.20;1.40;;;;;;;7.73;85.96;100437.05;106672;1267;22533;-59
2023/01/14 11:05:43;;;;;;;9.60;1.70;;;;;;;7.73;85.85;100436.65;106272;1274;23946;-59
2023/01/14 11:08:32;;;;;;;8.90;1.90;;;;;;;7.75;85.65;100437.52;106444;1270;22540;-57
2023/01/14 11:11:08;;;;;;;7.50;1.50;;;;;;;7.78;85.74;100431.77;106344;1265;24287;-58
2023/01/14 11:13:44;;;;;;;7.10;1.70;;;;;;;7.82;86.03;100434.05;106496;1264;22906;-59
2023/01/14 11:16:33;;;;;;;10.60;1.30;;;;;;;7.89;85.68;100436.25;106409;1273;25358;-59
2023/01/14 11:19:20;;;;;;;7.10;1.20;;;;;;;7.95;85.09;100424.52;106323;1271;24362;-54
2023/01/14 11:21:54;;;;;;;6.90;1.20;;;;;;;8.03;85.36;100417.27;106334;1264;25432;-59
2023/01/14 11:24:31;;;;;;;9.40;1.30;;;;;;;8.11;84.88;100409.24;106323;1260;22663;-64
2023/01/14 11:27:05;;;;;;;7.60;0.90;;;;;;;8.21;84.81;100413.70;106259;1258;22545;-59
2023/01/14 11:29:43;;;;;;;9.40;1.50;;;;;;;8.28;84.16;100412.95;106362;1278;22541;-61
2023/01/14 11:32:16;;;;;;;7.90;1.60;;;;;;;8.31;83.36;100409.90;106179;1270;22663;-62
2023/01/14 11:34:52;;;;;;;7.90;1.10;;;;;;;8.33;83.25;100416.73;106425;1275;22537;-59
2023/01/14 11:37:26;;;;;;;7.50;1.30;;;;;;;8.34;82.95;100412.88;106388;1267;23029;-59
2023/01/14 11:39:59;;;;;;;9.70;1.20;;;;;;;8.37;83.18;100413.02;106476;1273;24250;-58
2023/01/14 11:42:35;;;;;;;8.20;1.20;;;;;;;8.38;82.44;100412.02;106569;1254;22533;-58
2023/01/14 11:45:18;;;;;;;8.70;0.90;;;;;;;8.38;82.42;100406.91;106598;1261;25350;-59
2023/01/14 11:47:51;;;;;;;7.20;1.10;;;;;;;8.36;82.04;100405.85;106488;1269;22550;-60
2023/01/14 11:50:25;;;;;;;6.20;0.90;;;;;;;8.36;82.32;100401.85;106578;1270;22572;-59
2023/01/14 11:53:06;;;;;;;5.20;0.90;;;;;;;8.36;81.92;100397.00;106509;1276;22546;-61
2023/01/14 11:55:39;;;;;;;10.40;1.10;;;;;;;8.37;82.22;100387.81;106441;1265;22741;-59
2023/01/14 11:58:20;;;;;;;7.10;0.80;;;;;;;8.37;81.72;100383.42;106615;1260;25444;-59
2023/01/14 12:00:52;;;;;;;;;;;;;;;8.36;81.82;100380.36;106432;1260;22517;-58
2023/01/14 12:03:34;;;;;;;5.30;0.80;;;;;;;8.35;81.29;100379.16;106410;1273;22652;-58
2023/01/14 12:06:10;;;;;;;4.50;0.60;;;;;;;8.34;81.16;100376.11;106358;1276;22608;-59
2023/01/14 12:08:44;;;;;;;4.10;0.70;;;;;;;8.36;81.31;100375.10;106555;1260;22530;-58
2023/01/14 12:11:19;;;;;;;6.40;1.10;;;;;;;8.40;81.08;100375.27;106615;1269;25622;-59
2023/01/14 12:16:52;;;;;;;5.60;1.00;;;;;;;8.50;80.02;100370.56;106492;1276;22715;-59
2023/01/14 12:19:30;;;;;;;12.20;1.20;;;;;;;8.52;80.15;100369.67;106464;1260;24216;-57
2023/01/14 12:22:12;;;;;;;6.00;0.90;;;;;;;8.51;79.36;100366.48;107432;1268;25358;-59
2023/01/14 12:24:53;;;;;;;5.50;0.80;;;;;;;8.47;79.27;100360.97;106592;1268;22547;-59
2023/01/14 12:27:43;;;;;;;4.90;0.80;;;;;;;8.44;79.48;100364.61;106678;1268;25386;-59
2023/01/14 12:30:50;;;;;;;5.20;0.90;;;;;;;8.41;79.34;100358.14;106450;1268;23011;-58
2023/01/14 12:33:26;;;;;;;4.60;1.00;;;;;;;8.40;79.58;100356.05;106508;1260;25298;-59
2023/01/14 12:36:08;;;;;;;7.90;0.90;;;;;;;8.40;79.67;100352.95;106527;1270;25414;-58
2023/01/14 12:47:25;;;;;;;8.60;0.90;;;;;;;8.31;79.02;100333.77;106614;1269;24342;-62
2023/01/14 12:49:57;;;;;;;8.90;1.10;;;;;;;8.27;79.17;100326.54;106434;1276;22537;-61
2023/01/14 12:52:33;;;;;;;5.80;1.00;;;;;;;8.25;78.88;100326.94;106567;1261;23025;-62
2023/01/14 12:55:07;;;;;;;7.90;0.90;;;;;;;8.22;78.58;100331.66;106528;1276;22527;-61
2023/01/14 12:57:41;;;;;;;9.60;1.20;;;;;;;8.20;78.71;100333.42;106473;1260;22622;-72
2023/01/14 13:00:19;;;;;;;7.00;1.10;;;;;;;8.16;78.38;100332.92;107234;1260;22538;-60
2023/01/14 13:02:54;;;;;;;4.90;0.90;;;;;;;8.12;78.07;100328.86;106842;1261;25351;-59
2023/01/14 13:05:34;;;;;;;9.50;1.00;;;;;;;8.09;77.69;100326.30;106540;1260;22514;-60
2023/01/14 13:08:09;;;;;;;5.40;0.70;;;;;;;8.05;77.46;100320.04;106618;1276;22523;-61